createdAt,value
2019-05-29T00:02:01.519Z,69.10
2019-05-29T00:04:33.997Z,68.80
2019-05-29T00:07:06.293Z,68.80
2019-05-29T00:09:38.814Z,68.60
2019-05-29T00:12:15.019Z,68.70
2019-05-29T00:14:45.252Z,68.90
2019-05-29T00:17:18.594Z,68.80
2019-05-29T00:19:50.913Z,68.70
2019-05-29T00:22:23.251Z,68.60
2019-05-29T00:24:55.474Z,68.60
2019-05-29T00:27:27.696Z,68.40
2019-05-29T00:30:00.010Z,68.30
2019-05-29T00:32:32.141Z,68.20
2019-05-29T00:35:05.911Z,68.10
2019-05-29T00:37:38.491Z,68.00
2019-05-29T00:40:10.977Z,67.90
2019-05-29T00:42:43.417Z,68.10
2019-05-29T00:45:15.760Z,68.00
2019-05-29T00:47:49.113Z,68.10
2019-05-29T00:50:21.307Z,68.30
2019-05-29T00:52:53.505Z,69.10
2019-05-29T00:55:25.902Z,68.20
2019-05-29T00:57:58.179Z,68.10
2019-05-29T01:00:30.434Z,68.20
2019-05-29T01:03:02.700Z,68.20
2019-05-29T01:05:34.941Z,68.10
2019-05-29T01:08:07.265Z,68.30
2019-05-29T01:10:39.492Z,68.40
2019-05-29T01:13:13.034Z,68.60
2019-05-29T01:15:45.790Z,68.50
2019-05-29T01:18:19.983Z,68.50
2019-05-29T01:20:52.328Z,68.60
2019-05-29T01:23:24.603Z,68.60
2019-05-29T01:25:56.721Z,68.60
2019-05-29T01:28:29.173Z,68.80
2019-05-29T01:31:01.546Z,68.70
2019-05-29T01:33:33.937Z,68.80
2019-05-29T01:36:06.081Z,68.90
2019-05-29T01:38:38.508Z,68.90
2019-05-29T01:41:10.620Z,69.10
2019-05-29T01:43:42.840Z,68.90
2019-05-29T01:46:15.219Z,68.90
2019-05-29T01:48:47.509Z,69.00
2019-05-29T01:51:19.725Z,68.90
2019-05-29T01:53:51.941Z,69.00
2019-05-29T01:56:24.133Z,69.00
2019-05-29T01:58:56.560Z,69.10
2019-05-29T02:01:28.784Z,69.10
2019-05-29T02:04:01.025Z,69.10
2019-05-29T02:06:33.279Z,69.10
2019-05-29T02:09:06.865Z,69.10
2019-05-29T02:11:39.041Z,69.10
2019-05-29T02:14:11.233Z,69.10
2019-05-29T02:16:43.551Z,69.20
2019-05-29T02:19:15.872Z,69.20
2019-05-29T02:21:48.135Z,69.10
2019-05-29T02:24:21.172Z,69.20
2019-05-29T02:26:53.440Z,69.20
2019-05-29T02:29:26.900Z,69.10
2019-05-29T02:31:59.252Z,69.10
2019-05-29T02:34:31.514Z,69.00
2019-05-29T02:37:03.745Z,69.10
2019-05-29T02:39:36.157Z,69.20
2019-05-29T02:42:08.642Z,69.30
2019-05-29T02:44:40.934Z,69.20
2019-05-29T02:47:13.143Z,69.20
2019-05-29T02:49:45.457Z,69.30
2019-05-29T02:52:17.819Z,69.40
2019-05-29T02:54:51.099Z,69.40
2019-05-29T02:57:24.535Z,69.60
2019-05-29T02:59:56.995Z,69.40
2019-05-29T03:02:30.210Z,69.40
2019-05-29T03:05:03.217Z,70.30
2019-05-29T03:07:35.526Z,69.50
2019-05-29T03:10:10.064Z,69.30
2019-05-29T03:12:42.759Z,69.30
2019-05-29T03:15:15.021Z,69.30
2019-05-29T03:17:47.436Z,69.20
2019-05-29T03:20:19.709Z,68.90
2019-05-29T03:22:51.891Z,69.10
2019-05-29T03:25:26.504Z,69.20
2019-05-29T03:27:58.702Z,69.10
2019-05-29T03:30:37.410Z,69.10
2019-05-29T03:33:05.170Z,69.10
2019-05-29T03:35:43.413Z,69.30
2019-05-29T03:38:11.237Z,69.40
2019-05-29T03:40:43.702Z,69.70
2019-05-29T03:43:15.921Z,69.70
2019-05-29T03:45:48.283Z,69.70
2019-05-29T03:48:20.510Z,69.50
2019-05-29T03:50:52.677Z,69.70
2019-05-29T03:53:24.893Z,69.80
2019-05-29T03:55:57.208Z,69.70
2019-05-29T03:58:30.848Z,69.70
2019-05-29T04:01:03.285Z,69.70
2019-05-29T04:03:38.224Z,69.70
2019-05-29T04:06:10.729Z,69.70
2019-05-29T04:08:42.998Z,69.70
2019-05-29T04:11:15.232Z,69.70
2019-05-29T04:13:47.570Z,69.80
2019-05-29T04:16:22.202Z,69.70
2019-05-29T04:18:55.254Z,69.50
2019-05-29T04:21:29.539Z,69.50
2019-05-29T04:24:04.057Z,69.40
2019-05-29T04:26:40.835Z,69.10
2019-05-29T04:29:13.635Z,69.00
2019-05-29T04:31:45.901Z,69.10
2019-05-29T04:34:18.188Z,68.90
2019-05-29T04:36:50.461Z,68.70
2019-05-29T04:39:22.615Z,68.60
2019-05-29T04:41:54.960Z,68.60
2019-05-29T04:44:28.689Z,68.80
2019-05-29T04:47:11.202Z,69.10
2019-05-29T04:49:36.172Z,69.30
2019-05-29T04:52:08.930Z,69.40
2019-05-29T04:54:43.658Z,69.70
2019-05-29T04:57:15.990Z,69.70
2019-05-29T04:59:48.389Z,70.00
2019-05-29T05:02:20.799Z,70.40
2019-05-29T05:04:53.221Z,70.40
2019-05-29T05:07:25.555Z,70.60
2019-05-29T05:09:57.749Z,70.90
2019-05-29T05:12:30.052Z,70.50
2019-05-29T05:15:02.361Z,70.00
2019-05-29T05:17:35.924Z,69.40
2019-05-29T05:20:08.490Z,68.80
2019-05-29T05:22:41.119Z,69.20
2019-05-29T05:25:13.433Z,67.90
2019-05-29T05:27:45.725Z,67.50
2019-05-29T05:30:18.088Z,67.20
2019-05-29T05:32:50.504Z,67.00
2019-05-29T05:35:22.712Z,66.80
2019-05-29T05:37:55.038Z,66.70
2019-05-29T05:40:27.338Z,66.20
2019-05-29T05:43:00.569Z,65.90
2019-05-29T05:45:33.074Z,66.00
2019-05-29T05:48:05.461Z,66.10
2019-05-29T05:50:37.772Z,65.70
2019-05-29T05:53:10.054Z,65.70
2019-05-29T05:55:42.279Z,65.70
2019-05-29T05:58:14.490Z,65.50
2019-05-29T06:00:48.556Z,65.50
2019-05-29T06:03:20.818Z,65.30
2019-05-29T06:05:53.190Z,65.50
2019-05-29T06:08:25.537Z,64.80
2019-05-29T06:10:58.245Z,65.00
2019-05-29T06:13:30.762Z,65.10
2019-05-29T06:16:03.000Z,64.80
2019-05-29T06:18:36.442Z,65.10
2019-05-29T06:21:08.788Z,65.20
2019-05-29T06:23:41.185Z,65.50
2019-05-29T06:26:13.626Z,64.90
2019-05-29T06:28:46.409Z,65.20
2019-05-29T06:31:18.729Z,65.20
2019-05-29T06:33:51.020Z,65.20
2019-05-29T06:36:23.242Z,65.00
2019-05-29T06:38:55.549Z,64.70
2019-05-29T06:41:27.783Z,64.60
2019-05-29T06:44:00.975Z,64.90
2019-05-29T06:46:34.369Z,64.90
2019-05-29T06:49:06.803Z,64.90
2019-05-29T06:51:39.404Z,64.50
2019-05-29T06:54:11.954Z,64.40
2019-05-29T06:56:44.168Z,63.80
2019-05-29T06:59:16.498Z,64.00
2019-05-29T07:01:48.782Z,64.00
2019-05-29T07:04:20.969Z,64.20
2019-05-29T07:06:53.294Z,64.20
2019-05-29T07:09:25.505Z,63.80
2019-05-29T07:11:57.725Z,63.80
2019-05-29T07:14:29.998Z,63.50
2019-05-29T07:17:02.360Z,63.30
2019-05-29T07:19:50.635Z,63.40
2019-05-29T07:22:08.461Z,63.40
2019-05-29T07:24:41.193Z,63.10
2019-05-29T07:27:13.718Z,63.40
2019-05-29T07:29:47.349Z,63.10
2019-05-29T07:32:19.892Z,63.10
2019-05-29T07:35:03.098Z,63.00
2019-05-29T07:37:26.616Z,63.00
2019-05-29T07:39:58.904Z,62.70
2019-05-29T07:42:35.925Z,62.60
2019-05-29T07:45:10.979Z,62.80
2019-05-29T07:47:44.594Z,62.50
2019-05-29T07:50:17.509Z,62.00
2019-05-29T07:52:50.100Z,61.80
2019-05-29T07:55:23.735Z,61.20
2019-05-29T07:57:56.199Z,61.40
2019-05-29T08:00:37.885Z,61.10
2019-05-29T08:03:07.825Z,61.00
2019-05-29T08:05:41.479Z,60.60
2019-05-29T08:08:16.989Z,60.60
2019-05-29T08:10:49.723Z,60.30
2019-05-29T08:13:22.221Z,60.10
2019-05-29T08:16:02.782Z,60.00
2019-05-29T08:18:28.639Z,59.80
2019-05-29T08:21:02.671Z,59.80
2019-05-29T08:23:36.738Z,59.60
2019-05-29T08:26:09.117Z,59.40
2019-05-29T08:28:42.989Z,59.30
2019-05-29T08:31:17.938Z,59.20
2019-05-29T08:33:52.710Z,59.20
2019-05-29T08:36:26.698Z,59.30
2019-05-29T08:38:59.201Z,58.60
2019-05-29T08:41:31.481Z,58.40
2019-05-29T08:44:05.923Z,58.60
2019-05-29T08:46:38.652Z,58.60
2019-05-29T08:49:13.462Z,58.50
2019-05-29T08:51:45.992Z,58.10
2019-05-29T08:54:23.849Z,58.20
2019-05-29T08:56:52.578Z,58.10
2019-05-29T08:59:24.925Z,58.20
2019-05-29T09:01:57.404Z,58.30
2019-05-29T09:04:29.655Z,58.20
2019-05-29T09:07:01.936Z,58.00
2019-05-29T09:09:34.167Z,58.10
2019-05-29T09:12:06.475Z,57.90
2019-05-29T09:14:38.666Z,57.70
2019-05-29T09:17:14.469Z,57.60
2019-05-29T09:19:46.858Z,57.90
2019-05-29T09:22:19.180Z,57.90
2019-05-29T09:24:51.742Z,58.10
2019-05-29T09:27:24.281Z,58.40
2019-05-29T09:29:56.564Z,58.50
2019-05-29T09:32:48.350Z,57.90
2019-05-29T09:35:02.819Z,57.80
2019-05-29T09:37:36.086Z,57.90
2019-05-29T09:40:20.847Z,58.10
2019-05-29T09:42:53.457Z,58.70
2019-05-29T09:45:25.649Z,58.90
2019-05-29T09:47:57.905Z,59.00
2019-05-29T09:50:48.830Z,59.40
2019-05-29T09:53:04.804Z,59.30
2019-05-29T09:55:37.034Z,59.30
2019-05-29T09:58:09.296Z,59.40
2019-05-29T10:00:41.554Z,59.30
2019-05-29T10:03:13.801Z,59.20
2019-05-29T10:05:46.100Z,59.10
2019-05-29T10:08:18.545Z,59.40
2019-05-29T10:10:50.957Z,59.30
2019-05-29T10:13:23.185Z,58.90
2019-05-29T10:15:55.995Z,59.00
2019-05-29T10:18:32.475Z,59.30
2019-05-29T10:21:03.642Z,59.50
2019-05-29T10:23:35.968Z,59.50
2019-05-29T10:26:08.306Z,59.60
2019-05-29T10:31:02.878Z,59.80
2019-05-29T10:31:14.556Z,59.90
2019-05-29T10:33:47.985Z,59.70
2019-05-29T10:36:20.774Z,59.40
2019-05-29T10:38:53.425Z,59.30
2019-05-29T10:41:25.673Z,59.20
2019-05-29T10:43:59.106Z,59.30
2019-05-29T10:46:31.834Z,59.50
2019-05-29T10:49:05.032Z,59.70
2019-05-29T10:51:37.293Z,59.70
2019-05-29T10:54:09.727Z,59.90
2019-05-29T10:56:41.990Z,59.90
2019-05-29T10:59:14.262Z,60.20
2019-05-29T11:01:47.052Z,60.50
2019-05-29T11:04:19.440Z,60.30
2019-05-29T11:06:52.471Z,59.50
2019-05-29T11:09:25.623Z,59.40
2019-05-29T11:11:59.188Z,59.20
2019-05-29T11:14:31.536Z,59.40
2019-05-29T11:17:04.217Z,59.70
2019-05-29T11:19:36.724Z,59.80
2019-05-29T11:22:25.320Z,60.20
2019-05-29T11:24:43.026Z,59.40
2019-05-29T11:27:15.457Z,59.20
2019-05-29T11:29:48.714Z,59.30
2019-05-29T11:32:23.088Z,59.60
2019-05-29T11:34:55.611Z,59.90
2019-05-29T11:37:27.938Z,60.10
2019-05-29T11:40:00.248Z,60.00
2019-05-29T11:42:32.453Z,58.90
2019-05-29T11:45:05.638Z,58.80
2019-05-29T11:47:38.053Z,59.00
2019-05-29T11:50:19.130Z,58.40
2019-05-29T11:52:46.145Z,57.30
2019-05-29T11:55:18.733Z,56.70
2019-05-29T11:57:53.992Z,57.20
2019-05-29T12:00:26.727Z,56.80
2019-05-29T12:02:59.640Z,56.70
2019-05-29T12:05:31.806Z,56.20
2019-05-29T12:08:04.543Z,56.40
2019-05-29T12:10:37.115Z,56.00
2019-05-29T12:13:09.320Z,56.00
2019-05-29T12:15:45.034Z,55.90
2019-05-29T12:18:24.216Z,55.40
2019-05-29T12:20:52.088Z,55.70
2019-05-29T12:23:27.143Z,56.00
2019-05-29T12:26:18.845Z,56.00
2019-05-29T12:28:36.580Z,56.00
2019-05-29T12:31:08.862Z,55.10
2019-05-29T12:33:41.318Z,54.20
2019-05-29T12:36:15.191Z,53.70
2019-05-29T12:38:47.816Z,52.70
2019-05-29T12:41:22.210Z,53.00
2019-05-29T12:43:55.282Z,53.40
2019-05-29T12:46:30.487Z,52.00
2019-05-29T12:49:03.765Z,51.60
2019-05-29T12:51:38.789Z,52.50
2019-05-29T12:54:11.152Z,52.70
2019-05-29T12:56:43.630Z,51.70
2019-05-29T12:59:16.149Z,51.80
2019-05-29T13:01:49.894Z,51.60
2019-05-29T13:04:22.202Z,52.00
2019-05-29T13:06:54.575Z,51.10
2019-05-29T13:09:29.325Z,51.50
2019-05-29T13:12:02.638Z,51.60
2019-05-29T13:14:35.070Z,51.10
2019-05-29T13:17:07.537Z,50.40
2019-05-29T13:19:39.722Z,50.50
2019-05-29T13:22:14.336Z,50.50
2019-05-29T13:24:47.073Z,50.50
2019-05-29T13:27:20.954Z,50.90
2019-05-29T13:30:00.578Z,50.00
2019-05-29T13:32:33.872Z,50.20
2019-05-29T13:35:10.493Z,50.20
2019-05-29T13:37:46.019Z,50.70
2019-05-29T13:40:24.692Z,50.60
2019-05-29T13:43:01.611Z,50.60
2019-05-29T13:45:33.669Z,50.80
2019-05-29T13:48:07.354Z,51.20
2019-05-29T13:50:39.914Z,50.80
2019-05-29T13:53:12.479Z,50.10
2019-05-29T13:55:46.196Z,50.50
2019-05-29T13:58:18.527Z,50.90
2019-05-29T14:00:52.056Z,50.80
2019-05-29T14:03:25.091Z,50.80
2019-05-29T14:05:58.656Z,50.90
2019-05-29T14:08:31.033Z,50.60
2019-05-29T14:11:03.559Z,50.80
2019-05-29T14:13:36.159Z,50.30
2019-05-29T14:16:08.565Z,50.00
2019-05-29T14:18:40.779Z,49.90
2019-05-29T14:21:13.496Z,49.80
2019-05-29T14:23:46.083Z,49.30
2019-05-29T14:26:18.394Z,49.70
2019-05-29T14:28:50.652Z,49.60
2019-05-29T14:31:23.906Z,49.00
2019-05-29T14:33:56.553Z,48.90
2019-05-29T14:36:28.954Z,49.20
2019-05-29T14:39:01.656Z,49.10
2019-05-29T14:41:35.086Z,49.10
2019-05-29T14:44:07.946Z,48.80
2019-05-29T14:46:40.260Z,49.10
2019-05-29T14:49:13.544Z,48.70
2019-05-29T14:51:45.992Z,49.00
2019-05-29T14:54:19.120Z,49.20
2019-05-29T14:56:51.330Z,48.40
2019-05-29T14:59:23.650Z,48.60
2019-05-29T15:01:57.684Z,48.60
2019-05-29T15:04:30.449Z,47.60
2019-05-29T15:07:03.712Z,47.90
2019-05-29T15:09:36.041Z,46.00
2019-05-29T15:12:08.505Z,46.40
2019-05-29T15:14:40.730Z,46.60
2019-05-29T15:17:13.140Z,44.90
2019-05-29T15:19:46.118Z,43.70
2019-05-29T15:25:12.251Z,45.00
2019-05-29T15:27:39.673Z,43.40
2019-05-29T15:30:18.109Z,43.60
2019-05-29T15:32:49.754Z,44.00
2019-05-29T15:35:22.297Z,44.20
2019-05-29T15:37:58.242Z,44.20
2019-05-29T15:40:31.237Z,44.00
2019-05-29T15:43:03.952Z,44.60
2019-05-29T15:45:36.170Z,44.60
2019-05-29T15:48:08.990Z,44.60
2019-05-29T15:50:41.231Z,44.40
2019-05-29T15:53:17.345Z,44.30
2019-05-29T15:55:49.998Z,44.30
2019-05-29T15:58:22.914Z,43.90
2019-05-29T16:00:55.525Z,44.30
2019-05-29T16:03:27.932Z,44.00
2019-05-29T16:06:00.379Z,44.20
2019-05-29T16:08:32.771Z,44.10
2019-05-29T16:11:05.353Z,44.10
2019-05-29T16:13:38.967Z,44.30
2019-05-29T16:16:11.407Z,44.30
2019-05-29T16:18:45.290Z,43.90
2019-05-29T16:21:18.876Z,43.90
2019-05-29T16:23:52.478Z,43.50
2019-05-29T16:26:25.190Z,43.70
2019-05-29T16:28:58.724Z,43.80
2019-05-29T16:31:31.297Z,43.70
2019-05-29T16:34:03.915Z,43.60
2019-05-29T16:36:36.623Z,43.50
2019-05-29T16:39:08.952Z,43.40
2019-05-29T16:41:43.902Z,43.70
2019-05-29T16:44:16.366Z,43.50
2019-05-29T16:46:48.740Z,43.70
2019-05-29T16:49:21.424Z,43.40
2019-05-29T16:51:56.745Z,43.40
2019-05-29T16:54:30.019Z,43.40
2019-05-29T16:57:02.357Z,43.00
2019-05-29T16:59:34.677Z,42.90
2019-05-29T17:02:07.334Z,43.20
2019-05-29T17:04:40.005Z,43.20
2019-05-29T17:07:12.362Z,43.20
2019-05-29T17:09:44.721Z,42.00
2019-05-29T17:12:17.013Z,42.50
2019-05-29T17:14:49.148Z,42.70
2019-05-29T17:17:22.591Z,41.90
2019-05-29T17:19:55.064Z,41.80
2019-05-29T17:22:27.334Z,41.50
2019-05-29T17:24:59.543Z,41.60
2019-05-29T17:27:32.055Z,41.10
2019-05-29T17:30:05.913Z,41.30
2019-05-29T17:32:38.247Z,41.80
2019-05-29T17:35:11.684Z,42.00
2019-05-29T17:37:44.052Z,41.80
2019-05-29T17:40:17.026Z,41.10
2019-05-29T17:42:49.551Z,40.90
2019-05-29T17:45:25.346Z,41.40
2019-05-29T17:47:56.073Z,41.60
2019-05-29T17:50:28.406Z,41.40
2019-05-29T17:53:00.770Z,41.30
2019-05-29T17:55:33.014Z,40.90
2019-05-29T17:58:07.773Z,40.70
2019-05-29T18:00:40.318Z,41.10
2019-05-29T18:03:12.786Z,41.20
2019-05-29T18:05:48.613Z,41.50
2019-05-29T18:08:21.029Z,41.70
2019-05-29T18:10:53.354Z,42.00
2019-05-29T18:13:25.815Z,42.00
2019-05-29T18:15:58.059Z,42.10
2019-05-29T18:18:30.405Z,42.10
2019-05-29T18:21:02.574Z,42.30
2019-05-29T18:23:34.931Z,42.40
2019-05-29T18:26:07.474Z,42.40
2019-05-29T18:28:39.740Z,42.80
2019-05-29T18:31:12.129Z,42.70
2019-05-29T18:33:44.467Z,42.90
2019-05-29T18:36:16.970Z,42.70
2019-05-29T18:38:49.210Z,43.30
2019-05-29T18:41:22.225Z,43.40
2019-05-29T18:43:54.743Z,43.30
2019-05-29T18:46:27.287Z,43.70
2019-05-29T18:48:59.591Z,43.90
2019-05-29T18:51:32.824Z,43.90
2019-05-29T18:54:05.312Z,43.90
2019-05-29T18:56:37.673Z,44.10
2019-05-29T18:59:10.162Z,43.80
2019-05-29T19:01:42.533Z,44.20
2019-05-29T19:04:16.895Z,44.20
2019-05-29T19:06:50.104Z,44.40
2019-05-29T19:09:23.648Z,44.10
2019-05-29T19:11:56.401Z,44.40
2019-05-29T19:14:29.748Z,44.40
2019-05-29T19:17:04.130Z,44.30
2019-05-29T19:19:36.529Z,44.70
2019-05-29T19:22:09.086Z,45.60
2019-05-29T19:24:41.684Z,44.70
2019-05-29T19:27:27.961Z,45.00
2019-05-29T19:29:48.428Z,45.00
2019-05-29T19:32:20.914Z,45.10
2019-05-29T19:34:54.130Z,45.50
2019-05-29T19:37:27.825Z,46.10
2019-05-29T19:40:01.805Z,45.80
2019-05-29T19:42:37.415Z,46.40
2019-05-29T19:45:10.733Z,46.90
2019-05-29T19:47:43.056Z,47.20
2019-05-29T19:50:16.990Z,47.50
2019-05-29T19:52:49.353Z,47.90
2019-05-29T19:55:21.624Z,48.20
2019-05-29T19:57:56.400Z,48.40
2019-05-29T20:00:30.072Z,48.70
2019-05-29T20:03:03.528Z,49.00
2019-05-29T20:05:38.152Z,49.20
2019-05-29T20:08:10.816Z,49.60
2019-05-29T20:10:43.527Z,49.90
2019-05-29T20:13:18.410Z,50.00
2019-05-29T20:15:52.692Z,50.20
2019-05-29T20:18:29.981Z,50.20
2019-05-29T20:21:02.272Z,50.50
2019-05-29T20:23:35.189Z,50.60
2019-05-29T20:26:07.416Z,50.70
2019-05-29T20:28:39.738Z,51.00
2019-05-29T20:31:12.337Z,51.20
2019-05-29T20:33:44.789Z,51.20
2019-05-29T20:36:17.260Z,51.40
2019-05-29T20:38:49.638Z,51.60
2019-05-29T20:41:22.343Z,51.70
2019-05-29T20:43:54.923Z,51.90
2019-05-29T20:46:30.387Z,52.00
2019-05-29T20:49:02.874Z,52.00
2019-05-29T20:51:36.152Z,52.00
2019-05-29T20:54:08.585Z,52.20
2019-05-29T20:56:41.993Z,52.30
2019-05-29T20:59:14.142Z,52.30
2019-05-29T21:01:47.716Z,52.40
2019-05-29T21:04:20.421Z,52.60
2019-05-29T21:06:56.267Z,52.60
2019-05-29T21:09:34.886Z,52.80
2019-05-29T21:12:11.090Z,52.80
2019-05-29T21:14:44.741Z,53.00
2019-05-29T21:17:17.624Z,53.10
2019-05-29T21:19:50.025Z,53.10
2019-05-29T21:22:25.221Z,53.30
2019-05-29T21:25:04.338Z,53.40
2019-05-29T21:27:32.875Z,53.50
2019-05-29T21:30:06.620Z,53.60
2019-05-29T21:32:40.212Z,53.60
2019-05-29T21:35:12.716Z,53.60
2019-05-29T21:37:46.440Z,53.60
2019-05-29T21:40:19.406Z,53.80
2019-05-29T21:42:51.730Z,54.00
2019-05-29T21:45:23.923Z,54.00
2019-05-29T21:47:56.314Z,53.90
2019-05-29T21:50:29.093Z,54.00
2019-05-29T21:53:01.814Z,54.10
2019-05-29T21:55:34.121Z,54.10
2019-05-29T21:58:06.416Z,54.20
2019-05-29T22:00:46.659Z,54.20
2019-05-29T22:03:20.684Z,54.20
2019-05-29T22:05:52.881Z,54.30
2019-05-29T22:08:25.446Z,54.50
2019-05-29T22:10:58.059Z,54.60
2019-05-29T22:13:30.604Z,54.60
2019-05-29T22:16:03.210Z,54.80
2019-05-29T22:18:35.621Z,54.80
2019-05-29T22:21:07.924Z,54.80
2019-05-29T22:23:40.214Z,54.90
2019-05-29T22:26:12.688Z,55.10
2019-05-29T22:28:44.921Z,55.10
2019-05-29T22:31:17.174Z,55.20
2019-05-29T22:33:49.406Z,55.30
2019-05-29T22:36:21.770Z,55.30
2019-05-29T22:38:55.361Z,55.40
2019-05-29T22:41:27.759Z,55.60
2019-05-29T22:44:00.085Z,55.60
2019-05-29T22:46:32.415Z,55.60
2019-05-29T22:49:05.255Z,55.60
2019-05-29T22:51:37.510Z,55.80
2019-05-29T22:54:09.962Z,55.80
2019-05-29T22:56:42.244Z,56.00
2019-05-29T22:59:30.903Z,56.00
2019-05-29T23:01:48.558Z,56.10
2019-05-29T23:04:21.925Z,56.20
2019-05-29T23:06:54.258Z,56.40
2019-05-29T23:09:27.586Z,56.20
2019-05-29T23:12:00.432Z,56.20
2019-05-29T23:14:32.865Z,56.30
2019-05-29T23:17:05.109Z,56.40
2019-05-29T23:19:37.357Z,56.40
2019-05-29T23:22:10.585Z,56.40
2019-05-29T23:24:42.777Z,56.50
2019-05-29T23:27:15.133Z,56.70
2019-05-29T23:29:49.341Z,56.80
2019-05-29T23:32:21.437Z,56.90
2019-05-29T23:34:54.911Z,56.80
2019-05-29T23:37:27.430Z,57.00
2019-05-29T23:39:59.770Z,56.90
2019-05-29T23:42:31.926Z,57.00
2019-05-29T23:45:04.236Z,57.10
2019-05-29T23:47:36.462Z,57.00
2019-05-29T23:50:09.160Z,57.00
2019-05-29T23:52:41.396Z,57.10
2019-05-29T23:55:13.679Z,57.10
2019-05-29T23:57:46.229Z,57.20
